<?xml version="1.0" encoding="UTF-8" standalone="no" ?>
<gpx xmlns="http://www.topografix.com/GPX/1/1" xmlns:xsi="http://www.w3.org/2001/XMLSchema-instance" xsi:schemaLocation="http://www.topografix.com/GPX/1/1 http://www.topografix.com/GPX/1/1/gpx.xsd" version="1.1" creator="VisuGPX - https://www.visugpx.com">
  <metadata>
    <name>Plaine des Maures Escarcets</name>
    <desc><![CDATA[Plaine des Maures Escarcets]]></desc>
  </metadata>
  <trk>
    <name><![CDATA[ACTIVE LOG- 06 JUL 2011 16-46-MNT]]></name>
    <trkseg>
      <trkpt lat="43.35679" lon="6.39546">
        <ele>69.906685</ele>
        <time>2011-07-06T14:46:49Z</time>
      </trkpt>
      <trkpt lat="43.3569" lon="6.39598">
        <ele>70.428627</ele>
        <time>2011-07-06T14:48:01Z</time>
      </trkpt>
      <trkpt lat="43.35685" lon="6.39654">
        <ele>71.945206</ele>
        <time>2011-07-06T14:48:32Z</time>
      </trkpt>
      <trkpt lat="43.35698" lon="6.39701">
        <ele>71.841957</ele>
        <time>2011-07-06T14:53:19Z</time>
      </trkpt>
      <trkpt lat="43.35734" lon="6.39726">
        <ele>71.582436</ele>
        <time>2011-07-06T14:53:56Z</time>
      </trkpt>
      <trkpt lat="43.35769" lon="6.39744">
        <ele>74.893852</ele>
        <time>2011-07-06T14:54:51Z</time>
      </trkpt>
      <trkpt lat="43.35802" lon="6.39784">
        <ele>77.175827</ele>
        <time>2011-07-06T14:55:39Z</time>
      </trkpt>
      <trkpt lat="43.35811" lon="6.39847">
        <ele>79.236984</ele>
        <time>2011-07-06T14:55:57Z</time>
      </trkpt>
      <trkpt lat="43.3582" lon="6.39904">
        <ele>80.517502</ele>
        <time>2011-07-06T14:56:20Z</time>
      </trkpt>
      <trkpt lat="43.3584" lon="6.39957">
        <ele>80.000153</ele>
        <time>2011-07-06T14:57:00Z</time>
      </trkpt>
      <trkpt lat="43.35861" lon="6.40005">
        <ele>81.996887</ele>
        <time>2011-07-06T14:57:55Z</time>
      </trkpt>
      <trkpt lat="43.3586" lon="6.40062">
        <ele>83.93264</ele>
        <time>2011-07-06T14:58:31Z</time>
      </trkpt>
      <trkpt lat="43.35839" lon="6.40124">
        <ele>84.993752</ele>
        <time>2011-07-06T14:58:46Z</time>
      </trkpt>
      <trkpt lat="43.35821" lon="6.40185">
        <ele>84.818878</ele>
        <time>2011-07-06T14:59:02Z</time>
      </trkpt>
      <trkpt lat="43.35776" lon="6.40207">
        <ele>86.625</ele>
        <time>2011-07-06T14:59:18Z</time>
      </trkpt>
      <trkpt lat="43.35735" lon="6.40192">
        <ele>88.474998</ele>
        <time>2011-07-06T15:00:42Z</time>
      </trkpt>
      <trkpt lat="43.35696" lon="6.40221">
        <ele>89.574997</ele>
        <time>2011-07-06T15:00:56Z</time>
      </trkpt>
      <trkpt lat="43.35669" lon="6.4027">
        <ele>89.938751</ele>
        <time>2011-07-06T15:01:09Z</time>
      </trkpt>
      <trkpt lat="43.35643" lon="6.40319">
        <ele>90.252815</ele>
        <time>2011-07-06T15:01:20Z</time>
      </trkpt>
      <trkpt lat="43.35613" lon="6.40372">
        <ele>90.873497</ele>
        <time>2011-07-06T15:01:31Z</time>
      </trkpt>
      <trkpt lat="43.3557" lon="6.40405">
        <ele>91.517502</ele>
        <time>2011-07-06T15:01:41Z</time>
      </trkpt>
      <trkpt lat="43.35524" lon="6.40422">
        <ele>91.198753</ele>
        <time>2011-07-06T15:01:52Z</time>
      </trkpt>
      <trkpt lat="43.35475" lon="6.40432">
        <ele>91.412498</ele>
        <time>2011-07-06T15:02:05Z</time>
      </trkpt>
      <trkpt lat="43.35431" lon="6.40443">
        <ele>91.633751</ele>
        <time>2011-07-06T15:02:19Z</time>
      </trkpt>
      <trkpt lat="43.35384" lon="6.40452">
        <ele>91.837502</ele>
        <time>2011-07-06T15:02:31Z</time>
      </trkpt>
      <trkpt lat="43.3534" lon="6.40462">
        <ele>92</ele>
        <time>2011-07-06T15:02:42Z</time>
      </trkpt>
      <trkpt lat="43.35294" lon="6.40471">
        <ele>92.072136</ele>
        <time>2011-07-06T15:02:54Z</time>
      </trkpt>
      <trkpt lat="43.3525" lon="6.4048">
        <ele>92.441254</ele>
        <time>2011-07-06T15:03:06Z</time>
      </trkpt>
      <trkpt lat="43.35205" lon="6.4049">
        <ele>92.750885</ele>
        <time>2011-07-06T15:03:17Z</time>
      </trkpt>
      <trkpt lat="43.35158" lon="6.405">
        <ele>93</ele>
        <time>2011-07-06T15:03:28Z</time>
      </trkpt>
      <trkpt lat="43.35109" lon="6.40506">
        <ele>93.326874</ele>
        <time>2011-07-06T15:03:38Z</time>
      </trkpt>
      <trkpt lat="43.35063" lon="6.40505">
        <ele>93.491997</ele>
        <time>2011-07-06T15:03:49Z</time>
      </trkpt>
      <trkpt lat="43.35018" lon="6.40508">
        <ele>92.497063</ele>
        <time>2011-07-06T15:04:00Z</time>
      </trkpt>
      <trkpt lat="43.34972" lon="6.4051">
        <ele>91.684471</ele>
        <time>2011-07-06T15:04:12Z</time>
      </trkpt>
      <trkpt lat="43.34926" lon="6.40518">
        <ele>91.441254</ele>
        <time>2011-07-06T15:04:23Z</time>
      </trkpt>
      <trkpt lat="43.34881" lon="6.4052">
        <ele>91.519997</ele>
        <time>2011-07-06T15:04:37Z</time>
      </trkpt>
      <trkpt lat="43.34834" lon="6.40521">
        <ele>92.362732</ele>
        <time>2011-07-06T15:04:49Z</time>
      </trkpt>
      <trkpt lat="43.34785" lon="6.40528">
        <ele>94.067497</ele>
        <time>2011-07-06T15:05:00Z</time>
      </trkpt>
      <trkpt lat="43.34738" lon="6.40532">
        <ele>95.44632</ele>
        <time>2011-07-06T15:05:11Z</time>
      </trkpt>
      <trkpt lat="43.34692" lon="6.40541">
        <ele>96.65081</ele>
        <time>2011-07-06T15:05:21Z</time>
      </trkpt>
      <trkpt lat="43.34646" lon="6.40549">
        <ele>97.627502</ele>
        <time>2011-07-06T15:05:33Z</time>
      </trkpt>
      <trkpt lat="43.346" lon="6.40556">
        <ele>98</ele>
        <time>2011-07-06T15:05:45Z</time>
      </trkpt>
      <trkpt lat="43.34555" lon="6.4056">
        <ele>98.650002</ele>
        <time>2011-07-06T15:05:58Z</time>
      </trkpt>
      <trkpt lat="43.3451" lon="6.40555">
        <ele>99.662498</ele>
        <time>2011-07-06T15:06:10Z</time>
      </trkpt>
      <trkpt lat="43.34466" lon="6.40544">
        <ele>100.251549</ele>
        <time>2011-07-06T15:06:25Z</time>
      </trkpt>
      <trkpt lat="43.34448" lon="6.40489">
        <ele>99.518753</ele>
        <time>2011-07-06T15:06:37Z</time>
      </trkpt>
      <trkpt lat="43.34447" lon="6.40422">
        <ele>97.860001</ele>
        <time>2011-07-06T15:06:45Z</time>
      </trkpt>
      <trkpt lat="43.34451" lon="6.40351">
        <ele>95.660278</ele>
        <time>2011-07-06T15:06:52Z</time>
      </trkpt>
      <trkpt lat="43.34452" lon="6.40283">
        <ele>93.525002</ele>
        <time>2011-07-06T15:06:58Z</time>
      </trkpt>
      <trkpt lat="43.34453" lon="6.40218">
        <ele>92.509109</ele>
        <time>2011-07-06T15:07:04Z</time>
      </trkpt>
      <trkpt lat="43.34455" lon="6.4015">
        <ele>92.228653</ele>
        <time>2011-07-06T15:07:11Z</time>
      </trkpt>
      <trkpt lat="43.34455" lon="6.40087">
        <ele>93.267502</ele>
        <time>2011-07-06T15:07:20Z</time>
      </trkpt>
      <trkpt lat="43.34455" lon="6.40023">
        <ele>93.361458</ele>
        <time>2011-07-06T15:07:31Z</time>
      </trkpt>
      <trkpt lat="43.34456" lon="6.39959">
        <ele>94</ele>
        <time>2011-07-06T15:07:43Z</time>
      </trkpt>
      <trkpt lat="43.34456" lon="6.39899">
        <ele>94</ele>
        <time>2011-07-06T15:08:03Z</time>
      </trkpt>
      <trkpt lat="43.34478" lon="6.39867">
        <ele>93.9375</ele>
        <time>2011-07-06T15:08:22Z</time>
      </trkpt>
      <trkpt lat="43.34507" lon="6.39815">
        <ele>93.178528</ele>
        <time>2011-07-06T15:08:33Z</time>
      </trkpt>
      <trkpt lat="43.34519" lon="6.39751">
        <ele>93</ele>
        <time>2011-07-06T15:08:42Z</time>
      </trkpt>
      <trkpt lat="43.34545" lon="6.39697">
        <ele>93.223999</ele>
        <time>2011-07-06T15:08:53Z</time>
      </trkpt>
      <trkpt lat="43.34571" lon="6.39643">
        <ele>93</ele>
        <time>2011-07-06T15:09:02Z</time>
      </trkpt>
      <trkpt lat="43.3459" lon="6.39585">
        <ele>93.095253</ele>
        <time>2011-07-06T15:09:12Z</time>
      </trkpt>
      <trkpt lat="43.34607" lon="6.39527">
        <ele>93.627502</ele>
        <time>2011-07-06T15:09:24Z</time>
      </trkpt>
      <trkpt lat="43.34598" lon="6.39464">
        <ele>92.996872</ele>
        <time>2011-07-06T15:09:36Z</time>
      </trkpt>
      <trkpt lat="43.34589" lon="6.39399">
        <ele>91.299576</ele>
        <time>2011-07-06T15:09:46Z</time>
      </trkpt>
      <trkpt lat="43.34604" lon="6.39345">
        <ele>89.007225</ele>
        <time>2011-07-06T15:10:07Z</time>
      </trkpt>
      <trkpt lat="43.34607" lon="6.39276">
        <ele>86.522522</ele>
        <time>2011-07-06T15:10:15Z</time>
      </trkpt>
      <trkpt lat="43.34609" lon="6.39213">
        <ele>85.443253</ele>
        <time>2011-07-06T15:10:24Z</time>
      </trkpt>
      <trkpt lat="43.346" lon="6.39153">
        <ele>85.921562</ele>
        <time>2011-07-06T15:10:33Z</time>
      </trkpt>
      <trkpt lat="43.34595" lon="6.39091">
        <ele>86.667068</ele>
        <time>2011-07-06T15:10:49Z</time>
      </trkpt>
      <trkpt lat="43.3457" lon="6.39035">
        <ele>86.996254</ele>
        <time>2011-07-06T15:11:04Z</time>
      </trkpt>
      <trkpt lat="43.34533" lon="6.3899">
        <ele>87.559998</ele>
        <time>2011-07-06T15:11:13Z</time>
      </trkpt>
      <trkpt lat="43.34504" lon="6.3894">
        <ele>88.404999</ele>
        <time>2011-07-06T15:11:30Z</time>
      </trkpt>
      <trkpt lat="43.34483" lon="6.38882">
        <ele>90.19223</ele>
        <time>2011-07-06T15:11:50Z</time>
      </trkpt>
      <trkpt lat="43.34479" lon="6.38817">
        <ele>89.435616</ele>
        <time>2011-07-06T15:12:05Z</time>
      </trkpt>
      <trkpt lat="43.34475" lon="6.38751">
        <ele>87.522499</ele>
        <time>2011-07-06T15:12:15Z</time>
      </trkpt>
      <trkpt lat="43.34459" lon="6.38691">
        <ele>87.455528</ele>
        <time>2011-07-06T15:12:23Z</time>
      </trkpt>
      <trkpt lat="43.34449" lon="6.38631">
        <ele>88.009827</ele>
        <time>2011-07-06T15:12:34Z</time>
      </trkpt>
      <trkpt lat="43.34438" lon="6.38569">
        <ele>89.410034</ele>
        <time>2011-07-06T15:12:48Z</time>
      </trkpt>
      <trkpt lat="43.34437" lon="6.38506">
        <ele>88.727501</ele>
        <time>2011-07-06T15:12:59Z</time>
      </trkpt>
      <trkpt lat="43.34445" lon="6.38443">
        <ele>85.052971</ele>
        <time>2011-07-06T15:13:08Z</time>
      </trkpt>
      <trkpt lat="43.34436" lon="6.38379">
        <ele>81.360001</ele>
        <time>2011-07-06T15:13:19Z</time>
      </trkpt>
      <trkpt lat="43.34426" lon="6.38319">
        <ele>82.101952</ele>
        <time>2011-07-06T15:13:37Z</time>
      </trkpt>
      <trkpt lat="43.3443" lon="6.38262">
        <ele>86.487503</ele>
        <time>2011-07-06T15:14:00Z</time>
      </trkpt>
      <trkpt lat="43.34451" lon="6.38205">
        <ele>90.026871</ele>
        <time>2011-07-06T15:14:26Z</time>
      </trkpt>
      <trkpt lat="43.34432" lon="6.3815">
        <ele>91.159019</ele>
        <time>2011-07-06T15:15:37Z</time>
      </trkpt>
      <trkpt lat="43.34397" lon="6.3811">
        <ele>92.459549</ele>
        <time>2011-07-06T15:15:53Z</time>
      </trkpt>
      <trkpt lat="43.34362" lon="6.38073">
        <ele>94.640823</ele>
        <time>2011-07-06T15:16:12Z</time>
      </trkpt>
      <trkpt lat="43.34325" lon="6.38036">
        <ele>97.764076</ele>
        <time>2011-07-06T15:16:31Z</time>
      </trkpt>
      <trkpt lat="43.34285" lon="6.38008">
        <ele>99.33625</ele>
        <time>2011-07-06T15:16:50Z</time>
      </trkpt>
      <trkpt lat="43.34238" lon="6.37996">
        <ele>99.6875</ele>
        <time>2011-07-06T15:17:04Z</time>
      </trkpt>
      <trkpt lat="43.34194" lon="6.37979">
        <ele>100.602898</ele>
        <time>2011-07-06T15:17:17Z</time>
      </trkpt>
      <trkpt lat="43.34162" lon="6.37937">
        <ele>100.743011</ele>
        <time>2011-07-06T15:17:31Z</time>
      </trkpt>
      <trkpt lat="43.34131" lon="6.37892">
        <ele>101.018501</ele>
        <time>2011-07-06T15:17:45Z</time>
      </trkpt>
      <trkpt lat="43.34094" lon="6.37854">
        <ele>101.61438</ele>
        <time>2011-07-06T15:17:59Z</time>
      </trkpt>
      <trkpt lat="43.34052" lon="6.37821">
        <ele>102.305</ele>
        <time>2011-07-06T15:18:11Z</time>
      </trkpt>
      <trkpt lat="43.34011" lon="6.3779">
        <ele>102.769997</ele>
        <time>2011-07-06T15:18:24Z</time>
      </trkpt>
      <trkpt lat="43.33969" lon="6.37757">
        <ele>103</ele>
        <time>2011-07-06T15:18:38Z</time>
      </trkpt>
      <trkpt lat="43.33929" lon="6.37776">
        <ele>102.989876</ele>
        <time>2011-07-06T15:19:12Z</time>
      </trkpt>
      <trkpt lat="43.3389" lon="6.37809">
        <ele>103</ele>
        <time>2011-07-06T15:19:26Z</time>
      </trkpt>
      <trkpt lat="43.33856" lon="6.37852">
        <ele>103.462502</ele>
        <time>2011-07-06T15:19:42Z</time>
      </trkpt>
      <trkpt lat="43.33817" lon="6.37883">
        <ele>104.291374</ele>
        <time>2011-07-06T15:21:29Z</time>
      </trkpt>
      <trkpt lat="43.33778" lon="6.37926">
        <ele>103.639908</ele>
        <time>2011-07-06T15:21:42Z</time>
      </trkpt>
      <trkpt lat="43.33747" lon="6.37971">
        <ele>102.737595</ele>
        <time>2011-07-06T15:25:33Z</time>
      </trkpt>
      <trkpt lat="43.33719" lon="6.38016">
        <ele>101.129997</ele>
        <time>2011-07-06T15:25:49Z</time>
      </trkpt>
      <trkpt lat="43.33709" lon="6.38072">
        <ele>98.376251</ele>
        <time>2011-07-06T15:26:06Z</time>
      </trkpt>
      <trkpt lat="43.33673" lon="6.38088">
        <ele>99.38015</ele>
        <time>2011-07-06T15:26:43Z</time>
      </trkpt>
      <trkpt lat="43.33635" lon="6.38065">
        <ele>101.962502</ele>
        <time>2011-07-06T15:27:08Z</time>
      </trkpt>
      <trkpt lat="43.33605" lon="6.38028">
        <ele>103.317497</ele>
        <time>2011-07-06T15:27:30Z</time>
      </trkpt>
      <trkpt lat="43.33556" lon="6.38036">
        <ele>104.960594</ele>
        <time>2011-07-06T15:27:46Z</time>
      </trkpt>
      <trkpt lat="43.33521" lon="6.38075">
        <ele>106.705078</ele>
        <time>2011-07-06T15:28:01Z</time>
      </trkpt>
      <trkpt lat="43.33484" lon="6.38102">
        <ele>108.922501</ele>
        <time>2011-07-06T15:28:21Z</time>
      </trkpt>
      <trkpt lat="43.33462" lon="6.38154">
        <ele>110.683746</ele>
        <time>2011-07-06T15:28:42Z</time>
      </trkpt>
      <trkpt lat="43.33422" lon="6.38184">
        <ele>110.755028</ele>
        <time>2011-07-06T15:28:58Z</time>
      </trkpt>
      <trkpt lat="43.33377" lon="6.38182">
        <ele>110.419678</ele>
        <time>2011-07-06T15:29:11Z</time>
      </trkpt>
      <trkpt lat="43.3333" lon="6.38173">
        <ele>110.550003</ele>
        <time>2011-07-06T15:29:24Z</time>
      </trkpt>
      <trkpt lat="43.33282" lon="6.38172">
        <ele>110.729622</ele>
        <time>2011-07-06T15:29:37Z</time>
      </trkpt>
      <trkpt lat="43.33244" lon="6.38204">
        <ele>110.674149</ele>
        <time>2011-07-06T15:29:50Z</time>
      </trkpt>
      <trkpt lat="43.33205" lon="6.38236">
        <ele>110.846436</ele>
        <time>2011-07-06T15:30:01Z</time>
      </trkpt>
      <trkpt lat="43.33161" lon="6.38259">
        <ele>111.453598</ele>
        <time>2011-07-06T15:30:15Z</time>
      </trkpt>
      <trkpt lat="43.33121" lon="6.38287">
        <ele>112.752502</ele>
        <time>2011-07-06T15:30:30Z</time>
      </trkpt>
      <trkpt lat="43.33082" lon="6.38315">
        <ele>113.863625</ele>
        <time>2011-07-06T15:30:44Z</time>
      </trkpt>
      <trkpt lat="43.33096" lon="6.38344">
        <ele>113.121246</ele>
        <time>2011-07-06T15:31:19Z</time>
      </trkpt>
      <trkpt lat="43.33145" lon="6.38347">
        <ele>111.959747</ele>
        <time>2011-07-06T15:31:29Z</time>
      </trkpt>
      <trkpt lat="43.33189" lon="6.38358">
        <ele>110.529976</ele>
        <time>2011-07-06T15:31:40Z</time>
      </trkpt>
      <trkpt lat="43.3323" lon="6.38403">
        <ele>109.536453</ele>
        <time>2011-07-06T15:31:50Z</time>
      </trkpt>
      <trkpt lat="43.33253" lon="6.38458">
        <ele>105.551407</ele>
        <time>2011-07-06T15:32:00Z</time>
      </trkpt>
      <trkpt lat="43.33288" lon="6.38499">
        <ele>102.917801</ele>
        <time>2011-07-06T15:32:09Z</time>
      </trkpt>
      <trkpt lat="43.33333" lon="6.38511">
        <ele>101.690254</ele>
        <time>2011-07-06T15:32:20Z</time>
      </trkpt>
      <trkpt lat="43.33372" lon="6.38552">
        <ele>100.034622</ele>
        <time>2011-07-06T15:32:32Z</time>
      </trkpt>
      <trkpt lat="43.33349" lon="6.38612">
        <ele>99.706375</ele>
        <time>2011-07-06T15:32:51Z</time>
      </trkpt>
      <trkpt lat="43.33323" lon="6.38642">
        <ele>99.696251</ele>
        <time>2011-07-06T15:33:10Z</time>
      </trkpt>
      <trkpt lat="43.33288" lon="6.38688">
        <ele>100.246674</ele>
        <time>2011-07-06T15:33:30Z</time>
      </trkpt>
      <trkpt lat="43.33245" lon="6.38728">
        <ele>101.305</ele>
        <time>2011-07-06T15:33:48Z</time>
      </trkpt>
      <trkpt lat="43.33194" lon="6.38769">
        <ele>102.78019</ele>
        <time>2011-07-06T15:34:03Z</time>
      </trkpt>
      <trkpt lat="43.33154" lon="6.38791">
        <ele>104.267502</ele>
        <time>2011-07-06T15:34:20Z</time>
      </trkpt>
      <trkpt lat="43.33135" lon="6.38825">
        <ele>104.68</ele>
        <time>2011-07-06T15:34:36Z</time>
      </trkpt>
      <trkpt lat="43.33168" lon="6.38858">
        <ele>103.765228</ele>
        <time>2011-07-06T15:34:47Z</time>
      </trkpt>
      <trkpt lat="43.33202" lon="6.389">
        <ele>102.561951</ele>
        <time>2011-07-06T15:35:03Z</time>
      </trkpt>
      <trkpt lat="43.33236" lon="6.38941">
        <ele>102.40081</ele>
        <time>2011-07-06T15:35:21Z</time>
      </trkpt>
      <trkpt lat="43.3328" lon="6.38969">
        <ele>101.707497</ele>
        <time>2011-07-06T15:35:31Z</time>
      </trkpt>
      <trkpt lat="43.33313" lon="6.39021">
        <ele>102.560265</ele>
        <time>2011-07-06T15:35:40Z</time>
      </trkpt>
      <trkpt lat="43.33332" lon="6.39079">
        <ele>103.066437</ele>
        <time>2011-07-06T15:35:51Z</time>
      </trkpt>
      <trkpt lat="43.33373" lon="6.39118">
        <ele>101.752502</ele>
        <time>2011-07-06T15:36:02Z</time>
      </trkpt>
      <trkpt lat="43.33411" lon="6.39148">
        <ele>100.539345</ele>
        <time>2011-07-06T15:36:14Z</time>
      </trkpt>
      <trkpt lat="43.33449" lon="6.3919">
        <ele>100.228065</ele>
        <time>2011-07-06T15:36:25Z</time>
      </trkpt>
      <trkpt lat="43.3349" lon="6.392">
        <ele>99.474998</ele>
        <time>2011-07-06T15:36:58Z</time>
      </trkpt>
      <trkpt lat="43.33532" lon="6.39222">
        <ele>99.522278</ele>
        <time>2011-07-06T15:37:11Z</time>
      </trkpt>
      <trkpt lat="43.33577" lon="6.39227">
        <ele>100.636246</ele>
        <time>2011-07-06T15:37:23Z</time>
      </trkpt>
      <trkpt lat="43.33616" lon="6.39216">
        <ele>101.465057</ele>
        <time>2011-07-06T15:37:38Z</time>
      </trkpt>
      <trkpt lat="43.3366" lon="6.39196">
        <ele>102.474136</ele>
        <time>2011-07-06T15:37:52Z</time>
      </trkpt>
      <trkpt lat="43.33708" lon="6.39195">
        <ele>103.969482</ele>
        <time>2011-07-06T15:38:16Z</time>
      </trkpt>
      <trkpt lat="43.33757" lon="6.39181">
        <ele>103.633751</ele>
        <time>2011-07-06T15:38:29Z</time>
      </trkpt>
      <trkpt lat="43.33803" lon="6.39194">
        <ele>103.127403</ele>
        <time>2011-07-06T15:38:45Z</time>
      </trkpt>
      <trkpt lat="43.33837" lon="6.39234">
        <ele>102.960106</ele>
        <time>2011-07-06T15:39:00Z</time>
      </trkpt>
      <trkpt lat="43.33799" lon="6.39254">
        <ele>103.674049</ele>
        <time>2011-07-06T15:39:54Z</time>
      </trkpt>
      <trkpt lat="43.33762" lon="6.39287">
        <ele>105.142502</ele>
        <time>2011-07-06T15:40:09Z</time>
      </trkpt>
      <trkpt lat="43.33725" lon="6.39324">
        <ele>106</ele>
        <time>2011-07-06T15:40:22Z</time>
      </trkpt>
      <trkpt lat="43.33694" lon="6.39369">
        <ele>106.171463</ele>
        <time>2011-07-06T15:40:35Z</time>
      </trkpt>
      <trkpt lat="43.33661" lon="6.39419">
        <ele>107.485001</ele>
        <time>2011-07-06T15:40:47Z</time>
      </trkpt>
      <trkpt lat="43.33645" lon="6.39476">
        <ele>107.790001</ele>
        <time>2011-07-06T15:40:58Z</time>
      </trkpt>
      <trkpt lat="43.3364" lon="6.39537">
        <ele>107.849998</ele>
        <time>2011-07-06T15:41:09Z</time>
      </trkpt>
      <trkpt lat="43.33638" lon="6.39606">
        <ele>107.735077</ele>
        <time>2011-07-06T15:41:18Z</time>
      </trkpt>
      <trkpt lat="43.33629" lon="6.39667">
        <ele>106.999397</ele>
        <time>2011-07-06T15:41:28Z</time>
      </trkpt>
      <trkpt lat="43.33612" lon="6.39721">
        <ele>107.32</ele>
        <time>2011-07-06T15:41:44Z</time>
      </trkpt>
      <trkpt lat="43.33606" lon="6.39781">
        <ele>107.404999</ele>
        <time>2011-07-06T15:41:59Z</time>
      </trkpt>
      <trkpt lat="43.33592" lon="6.39839">
        <ele>106.707497</ele>
        <time>2011-07-06T15:42:14Z</time>
      </trkpt>
      <trkpt lat="43.33582" lon="6.39904">
        <ele>106.822502</ele>
        <time>2011-07-06T15:42:28Z</time>
      </trkpt>
      <trkpt lat="43.33584" lon="6.39968">
        <ele>106.739998</ele>
        <time>2011-07-06T15:42:38Z</time>
      </trkpt>
      <trkpt lat="43.33588" lon="6.40029">
        <ele>106.595001</ele>
        <time>2011-07-06T15:42:51Z</time>
      </trkpt>
      <trkpt lat="43.33584" lon="6.40095">
        <ele>106.627502</ele>
        <time>2011-07-06T15:43:04Z</time>
      </trkpt>
      <trkpt lat="43.33599" lon="6.40154">
        <ele>106.290298</ele>
        <time>2011-07-06T15:43:18Z</time>
      </trkpt>
      <trkpt lat="43.33616" lon="6.40222">
        <ele>106.836136</ele>
        <time>2011-07-06T15:43:29Z</time>
      </trkpt>
      <trkpt lat="43.3362" lon="6.4029">
        <ele>107.238747</ele>
        <time>2011-07-06T15:43:42Z</time>
      </trkpt>
      <trkpt lat="43.33602" lon="6.40346">
        <ele>108.327499</ele>
        <time>2011-07-06T15:43:58Z</time>
      </trkpt>
      <trkpt lat="43.3359" lon="6.40405">
        <ele>110.294998</ele>
        <time>2011-07-06T15:44:16Z</time>
      </trkpt>
      <trkpt lat="43.33593" lon="6.40468">
        <ele>112.017998</ele>
        <time>2011-07-06T15:44:40Z</time>
      </trkpt>
      <trkpt lat="43.336" lon="6.40529">
        <ele>111.84539</ele>
        <time>2011-07-06T15:44:54Z</time>
      </trkpt>
      <trkpt lat="43.33588" lon="6.40591">
        <ele>111.234444</ele>
        <time>2011-07-06T15:45:08Z</time>
      </trkpt>
      <trkpt lat="43.33561" lon="6.40645">
        <ele>111.56427</ele>
        <time>2011-07-06T15:45:23Z</time>
      </trkpt>
      <trkpt lat="43.33541" lon="6.40697">
        <ele>110.18</ele>
        <time>2011-07-06T15:45:37Z</time>
      </trkpt>
      <trkpt lat="43.33548" lon="6.40759">
        <ele>109.868927</ele>
        <time>2011-07-06T15:45:50Z</time>
      </trkpt>
      <trkpt lat="43.33581" lon="6.40799">
        <ele>109.638748</ele>
        <time>2011-07-06T15:46:00Z</time>
      </trkpt>
      <trkpt lat="43.33597" lon="6.40851">
        <ele>109.152153</ele>
        <time>2011-07-06T15:49:46Z</time>
      </trkpt>
      <trkpt lat="43.33583" lon="6.40906">
        <ele>109.037498</ele>
        <time>2011-07-06T15:50:12Z</time>
      </trkpt>
      <trkpt lat="43.33575" lon="6.40964">
        <ele>106.360611</ele>
        <time>2011-07-06T15:50:23Z</time>
      </trkpt>
      <trkpt lat="43.33583" lon="6.41029">
        <ele>102.681328</ele>
        <time>2011-07-06T15:50:36Z</time>
      </trkpt>
      <trkpt lat="43.33578" lon="6.41088">
        <ele>103.278191</ele>
        <time>2011-07-06T15:51:44Z</time>
      </trkpt>
      <trkpt lat="43.33589" lon="6.41149">
        <ele>104.77993</ele>
        <time>2011-07-06T15:52:03Z</time>
      </trkpt>
      <trkpt lat="43.33597" lon="6.41211">
        <ele>106.602501</ele>
        <time>2011-07-06T15:52:19Z</time>
      </trkpt>
      <trkpt lat="43.33599" lon="6.41282">
        <ele>107.890068</ele>
        <time>2011-07-06T15:52:30Z</time>
      </trkpt>
      <trkpt lat="43.33566" lon="6.41316">
        <ele>108.942787</ele>
        <time>2011-07-06T15:52:41Z</time>
      </trkpt>
      <trkpt lat="43.33529" lon="6.41363">
        <ele>109.92028</ele>
        <time>2011-07-06T15:52:55Z</time>
      </trkpt>
      <trkpt lat="43.33505" lon="6.41414">
        <ele>111.050331</ele>
        <time>2011-07-06T15:53:17Z</time>
      </trkpt>
      <trkpt lat="43.33507" lon="6.41448">
        <ele>111.956253</ele>
        <time>2011-07-06T15:53:47Z</time>
      </trkpt>
      <trkpt lat="43.3355" lon="6.41413">
        <ele>111.415367</ele>
        <time>2011-07-06T15:53:57Z</time>
      </trkpt>
      <trkpt lat="43.33575" lon="6.41427">
        <ele>111.447502</ele>
        <time>2011-07-06T15:54:32Z</time>
      </trkpt>
      <trkpt lat="43.33569" lon="6.4149">
        <ele>112.5625</ele>
        <time>2011-07-06T15:54:44Z</time>
      </trkpt>
      <trkpt lat="43.33564" lon="6.41554">
        <ele>112.158775</ele>
        <time>2011-07-06T15:54:53Z</time>
      </trkpt>
      <trkpt lat="43.33564" lon="6.41616">
        <ele>111.176247</ele>
        <time>2011-07-06T15:55:04Z</time>
      </trkpt>
      <trkpt lat="43.33565" lon="6.41678">
        <ele>110.76461</ele>
        <time>2011-07-06T15:55:15Z</time>
      </trkpt>
      <trkpt lat="43.33572" lon="6.41743">
        <ele>110.510002</ele>
        <time>2011-07-06T15:55:26Z</time>
      </trkpt>
      <trkpt lat="43.33581" lon="6.4181">
        <ele>110.964493</ele>
        <time>2011-07-06T15:55:35Z</time>
      </trkpt>
      <trkpt lat="43.33595" lon="6.41874">
        <ele>111.841248</ele>
        <time>2011-07-06T15:55:44Z</time>
      </trkpt>
      <trkpt lat="43.33626" lon="6.41921">
        <ele>113.047348</ele>
        <time>2011-07-06T15:55:52Z</time>
      </trkpt>
      <trkpt lat="43.33647" lon="6.41977">
        <ele>113.11097</ele>
        <time>2011-07-06T15:56:01Z</time>
      </trkpt>
      <trkpt lat="43.33676" lon="6.42025">
        <ele>111.681061</ele>
        <time>2011-07-06T15:56:12Z</time>
      </trkpt>
      <trkpt lat="43.33724" lon="6.42043">
        <ele>110.197502</ele>
        <time>2011-07-06T15:56:22Z</time>
      </trkpt>
      <trkpt lat="43.33772" lon="6.42035">
        <ele>109.886253</ele>
        <time>2011-07-06T15:56:30Z</time>
      </trkpt>
      <trkpt lat="43.33816" lon="6.42051">
        <ele>109.263748</ele>
        <time>2011-07-06T15:56:38Z</time>
      </trkpt>
      <trkpt lat="43.33861" lon="6.42059">
        <ele>108.901878</ele>
        <time>2011-07-06T15:56:49Z</time>
      </trkpt>
      <trkpt lat="43.33902" lon="6.42021">
        <ele>110.914589</ele>
        <time>2011-07-06T15:56:59Z</time>
      </trkpt>
      <trkpt lat="43.3395" lon="6.42014">
        <ele>109.6175</ele>
        <time>2011-07-06T15:57:07Z</time>
      </trkpt>
      <trkpt lat="43.33973" lon="6.41954">
        <ele>108.315407</ele>
        <time>2011-07-06T15:57:15Z</time>
      </trkpt>
      <trkpt lat="43.34011" lon="6.41918">
        <ele>107.011253</ele>
        <time>2011-07-06T15:57:23Z</time>
      </trkpt>
      <trkpt lat="43.34047" lon="6.41872">
        <ele>106.417496</ele>
        <time>2011-07-06T15:57:31Z</time>
      </trkpt>
      <trkpt lat="43.34088" lon="6.4183">
        <ele>106</ele>
        <time>2011-07-06T15:57:39Z</time>
      </trkpt>
      <trkpt lat="43.34138" lon="6.41839">
        <ele>105.86956</ele>
        <time>2011-07-06T15:57:46Z</time>
      </trkpt>
      <trkpt lat="43.34185" lon="6.41843">
        <ele>105.171722</ele>
        <time>2011-07-06T15:57:52Z</time>
      </trkpt>
      <trkpt lat="43.34234" lon="6.41834">
        <ele>104.722504</ele>
        <time>2011-07-06T15:57:59Z</time>
      </trkpt>
      <trkpt lat="43.34279" lon="6.41848">
        <ele>103.695</ele>
        <time>2011-07-06T15:58:08Z</time>
      </trkpt>
      <trkpt lat="43.34324" lon="6.41845">
        <ele>102.805855</ele>
        <time>2011-07-06T15:58:18Z</time>
      </trkpt>
      <trkpt lat="43.3436" lon="6.41796">
        <ele>102.955002</ele>
        <time>2011-07-06T15:58:25Z</time>
      </trkpt>
      <trkpt lat="43.34395" lon="6.41753">
        <ele>102.195</ele>
        <time>2011-07-06T15:58:32Z</time>
      </trkpt>
      <trkpt lat="43.34442" lon="6.41734">
        <ele>101.18</ele>
        <time>2011-07-06T15:58:41Z</time>
      </trkpt>
      <trkpt lat="43.34446" lon="6.41717">
        <ele>101.097504</ele>
        <time>2011-07-06T15:59:26Z</time>
      </trkpt>
      <trkpt lat="43.34431" lon="6.41662">
        <ele>101.26342</ele>
        <time>2011-07-06T15:59:37Z</time>
      </trkpt>
      <trkpt lat="43.34384" lon="6.41659">
        <ele>102.10125</ele>
        <time>2011-07-06T15:59:48Z</time>
      </trkpt>
      <trkpt lat="43.34377" lon="6.41588">
        <ele>101.588531</ele>
        <time>2011-07-06T16:00:00Z</time>
      </trkpt>
      <trkpt lat="43.34381" lon="6.41526">
        <ele>101.166557</ele>
        <time>2011-07-06T16:00:10Z</time>
      </trkpt>
      <trkpt lat="43.34408" lon="6.41469">
        <ele>101</ele>
        <time>2011-07-06T16:00:19Z</time>
      </trkpt>
      <trkpt lat="43.3442" lon="6.41408">
        <ele>101.517342</ele>
        <time>2011-07-06T16:00:27Z</time>
      </trkpt>
      <trkpt lat="43.34436" lon="6.41352">
        <ele>102</ele>
        <time>2011-07-06T16:00:36Z</time>
      </trkpt>
      <trkpt lat="43.34446" lon="6.41311">
        <ele>101.741234</ele>
        <time>2011-07-06T16:01:00Z</time>
      </trkpt>
      <trkpt lat="43.34497" lon="6.41318">
        <ele>101.128761</ele>
        <time>2011-07-06T16:01:16Z</time>
      </trkpt>
      <trkpt lat="43.34547" lon="6.41318">
        <ele>98.653625</ele>
        <time>2011-07-06T16:01:27Z</time>
      </trkpt>
      <trkpt lat="43.34593" lon="6.41321">
        <ele>98.996246</ele>
        <time>2011-07-06T16:01:40Z</time>
      </trkpt>
      <trkpt lat="43.34639" lon="6.41324">
        <ele>100.019997</ele>
        <time>2011-07-06T16:01:52Z</time>
      </trkpt>
      <trkpt lat="43.34681" lon="6.41307">
        <ele>97.791656</ele>
        <time>2011-07-06T16:02:11Z</time>
      </trkpt>
      <trkpt lat="43.34685" lon="6.41246">
        <ele>97.8283</ele>
        <time>2011-07-06T16:02:28Z</time>
      </trkpt>
      <trkpt lat="43.34687" lon="6.41184">
        <ele>95.544998</ele>
        <time>2011-07-06T16:02:44Z</time>
      </trkpt>
      <trkpt lat="43.34688" lon="6.41121">
        <ele>92.304504</ele>
        <time>2011-07-06T16:03:01Z</time>
      </trkpt>
      <trkpt lat="43.3471" lon="6.41077">
        <ele>88.761703</ele>
        <time>2011-07-06T16:04:01Z</time>
      </trkpt>
      <trkpt lat="43.347" lon="6.41066">
        <ele>88.350891</ele>
        <time>2011-07-06T16:05:14Z</time>
      </trkpt>
      <trkpt lat="43.34681" lon="6.41106">
        <ele>91.906013</ele>
        <time>2011-07-06T16:06:30Z</time>
      </trkpt>
      <trkpt lat="43.34721" lon="6.41115">
        <ele>90.161873</ele>
        <time>2011-07-06T16:07:16Z</time>
      </trkpt>
      <trkpt lat="43.34761" lon="6.41141">
        <ele>86.991066</ele>
        <time>2011-07-06T16:07:38Z</time>
      </trkpt>
      <trkpt lat="43.34803" lon="6.41126">
        <ele>83.400002</ele>
        <time>2011-07-06T16:07:59Z</time>
      </trkpt>
      <trkpt lat="43.34848" lon="6.41121">
        <ele>80.971252</ele>
        <time>2011-07-06T16:08:16Z</time>
      </trkpt>
      <trkpt lat="43.34876" lon="6.41163">
        <ele>80.964996</ele>
        <time>2011-07-06T16:08:33Z</time>
      </trkpt>
      <trkpt lat="43.34924" lon="6.41178">
        <ele>80.137497</ele>
        <time>2011-07-06T16:09:07Z</time>
      </trkpt>
      <trkpt lat="43.3497" lon="6.41187">
        <ele>80.168129</ele>
        <time>2011-07-06T16:09:21Z</time>
      </trkpt>
      <trkpt lat="43.35021" lon="6.412">
        <ele>79.540001</ele>
        <time>2011-07-06T16:09:33Z</time>
      </trkpt>
      <trkpt lat="43.35064" lon="6.41222">
        <ele>79.223022</ele>
        <time>2011-07-06T16:09:45Z</time>
      </trkpt>
      <trkpt lat="43.35107" lon="6.41226">
        <ele>78.53125</ele>
        <time>2011-07-06T16:09:56Z</time>
      </trkpt>
      <trkpt lat="43.35157" lon="6.41243">
        <ele>77.627502</ele>
        <time>2011-07-06T16:10:07Z</time>
      </trkpt>
      <trkpt lat="43.35201" lon="6.41242">
        <ele>76.616501</ele>
        <time>2011-07-06T16:10:20Z</time>
      </trkpt>
      <trkpt lat="43.35249" lon="6.41256">
        <ele>75.691254</ele>
        <time>2011-07-06T16:10:35Z</time>
      </trkpt>
      <trkpt lat="43.353" lon="6.41261">
        <ele>74.077499</ele>
        <time>2011-07-06T16:11:09Z</time>
      </trkpt>
      <trkpt lat="43.35346" lon="6.4125">
        <ele>72.147499</ele>
        <time>2011-07-06T16:11:33Z</time>
      </trkpt>
      <trkpt lat="43.35391" lon="6.41234">
        <ele>70.759262</ele>
        <time>2011-07-06T16:11:47Z</time>
      </trkpt>
      <trkpt lat="43.35421" lon="6.41211">
        <ele>69.852501</ele>
        <time>2011-07-06T16:12:19Z</time>
      </trkpt>
      <trkpt lat="43.3541" lon="6.41181">
        <ele>71.349998</ele>
        <time>2011-07-06T16:13:26Z</time>
      </trkpt>
      <trkpt lat="43.35453" lon="6.41157">
        <ele>71.629997</ele>
        <time>2011-07-06T16:13:49Z</time>
      </trkpt>
      <trkpt lat="43.35465" lon="6.41098">
        <ele>75.095001</ele>
        <time>2011-07-06T16:14:09Z</time>
      </trkpt>
      <trkpt lat="43.35494" lon="6.41049">
        <ele>77.58989</ele>
        <time>2011-07-06T16:14:23Z</time>
      </trkpt>
      <trkpt lat="43.35511" lon="6.40996">
        <ele>78.491997</ele>
        <time>2011-07-06T16:14:37Z</time>
      </trkpt>
      <trkpt lat="43.35545" lon="6.40972">
        <ele>79.411522</ele>
        <time>2011-07-06T16:15:19Z</time>
      </trkpt>
      <trkpt lat="43.35549" lon="6.40909">
        <ele>78.776344</ele>
        <time>2011-07-06T16:15:34Z</time>
      </trkpt>
      <trkpt lat="43.35575" lon="6.40854">
        <ele>81.287102</ele>
        <time>2011-07-06T16:15:57Z</time>
      </trkpt>
      <trkpt lat="43.35599" lon="6.40806">
        <ele>82.695251</ele>
        <time>2011-07-06T16:16:25Z</time>
      </trkpt>
      <trkpt lat="43.35614" lon="6.40746">
        <ele>83.698746</ele>
        <time>2011-07-06T16:16:41Z</time>
      </trkpt>
      <trkpt lat="43.35634" lon="6.40691">
        <ele>85.025002</ele>
        <time>2011-07-06T16:16:55Z</time>
      </trkpt>
      <trkpt lat="43.35665" lon="6.40635">
        <ele>86.4375</ele>
        <time>2011-07-06T16:17:06Z</time>
      </trkpt>
      <trkpt lat="43.35693" lon="6.40583">
        <ele>86.746246</ele>
        <time>2011-07-06T16:17:15Z</time>
      </trkpt>
      <trkpt lat="43.35716" lon="6.40528">
        <ele>87.14843</ele>
        <time>2011-07-06T16:17:26Z</time>
      </trkpt>
      <trkpt lat="43.35738" lon="6.40473">
        <ele>86.864998</ele>
        <time>2011-07-06T16:17:37Z</time>
      </trkpt>
      <trkpt lat="43.35753" lon="6.40409">
        <ele>86.294998</ele>
        <time>2011-07-06T16:17:48Z</time>
      </trkpt>
      <trkpt lat="43.35768" lon="6.4035">
        <ele>85.95356</ele>
        <time>2011-07-06T16:17:58Z</time>
      </trkpt>
      <trkpt lat="43.35768" lon="6.40288">
        <ele>86.794685</ele>
        <time>2011-07-06T16:18:14Z</time>
      </trkpt>
      <trkpt lat="43.35769" lon="6.40224">
        <ele>86.889999</ele>
        <time>2011-07-06T16:18:27Z</time>
      </trkpt>
      <trkpt lat="43.35765" lon="6.40199">
        <ele>87.129997</ele>
        <time>2011-07-06T16:22:19Z</time>
      </trkpt>
      <trkpt lat="43.35813" lon="6.40208">
        <ele>84.993065</ele>
        <time>2011-07-06T16:22:33Z</time>
      </trkpt>
      <trkpt lat="43.3583" lon="6.40265">
        <ele>83.84375</ele>
        <time>2011-07-06T16:22:55Z</time>
      </trkpt>
    </trkseg>
  </trk>
</gpx>